Canyon Crest, California
Current Conditions -  °F | °C
As of 11:53 AM on Wednesday 26 Nov 2014 (Local Time) from KRAL Reporting Station
Clear Clear  
Wind Chill: 83°   Ceiling: Unl
Heat Index: 83°   Visibility: 10mi
Dew Point: 28°   Wind: 6mph
Humidity: 14%   Direction: 160°SSE
Pressure: 30.2"   Gusts: NA
Location:  33.9841°N, 117.329°W
Report Text: KRAL 261953Z 16005KT 10SM CLR 28/M02 A3020 RMK AO2 SLP212 T02831022
Loading
Personal Weather Stations






























Interactive Weather Map New forecast layout! Learn more

10-Day Weather Forecast

Advertisements
Track Severe Weather on mobile